Time;durP1;ratioP1;P1;durP2;ratioP2;P2;SDS_P1;SDS_P2;PMS_P1;PMS_P2;Temp;Humidity;BMP_temperature;BMP_pressure;BME280_temperature;BME280_humidity;BME280_pressure;Samples;Min_cycle;Max_cycle;Signal;HPM_P1;HPM_P2
2022/06/22 05:23:58;;;;;;;5.47;1.50;;;;;;;;;;5143813;23;20099;-59
2022/06/22 05:26:25;;;;;;;5.20;1.95;;;;;;;;;;4895918;29;20048;-61
2022/06/22 05:29:03;;;;;;;5.85;1.70;;;;;;;;;;4896267;29;20040;-62
2022/06/22 05:31:31;;;;;;;3.88;1.50;;;;;;;;;;4896286;29;20108;-59
2022/06/22 05:34:00;;;;;;;4.43;1.70;;;;;;;;;;4896090;29;20477;-61
2022/06/22 05:36:30;;;;;;;6.95;2.28;;;;;;;;;;4896105;29;20067;-59
2022/06/22 05:38:57;;;;;;;5.80;2.13;;;;;;;;;;4896349;29;20029;-58
2022/06/22 05:41:28;;;;;;;9.20;2.08;;;;;;;;;;4896246;29;20102;-58
2022/06/22 05:43:57;;;;;;;7.78;1.90;;;;;;;;;;4895674;29;20023;-57
2022/06/22 05:46:23;;;;;;;5.88;1.80;;;;;;;;;;4896410;29;20028;-58
2022/06/22 05:48:50;;;;;;;8.00;1.63;;;;;;;;;;4895445;29;20489;-57
2022/06/22 05:51:20;;;;;;;8.77;1.98;;;;;;;;;;4894796;29;20790;-57
2022/06/22 05:53:54;;;;;;;13.23;1.83;;;;;;;;;;4895183;29;20036;-56
2022/06/22 05:56:20;;;;;;;6.93;2.00;;;;;;;;;;4892360;29;20080;-58
2022/06/22 05:58:52;;;;;;;4.95;1.80;;;;;;;;;;4894510;29;20060;-58
2022/06/22 06:01:29;;;;;;;5.72;1.20;;;;;;;;;;4892436;29;20580;-57
2022/06/22 06:04:07;;;;;;;8.52;1.50;;;;;;;;;;4894561;29;20119;-58
2022/06/22 06:06:37;;;;;;;6.78;1.52;;;;;;;;;;4894599;29;20515;-57
2022/06/22 06:09:05;;;;;;;3.33;1.33;;;;;;;;;;4895164;29;20043;-56
2022/06/22 06:11:39;;;;;;;3.63;1.50;;;;;;;;;;4898641;29;20095;-57
2022/06/22 06:14:08;;;;;;;4.53;1.30;;;;;;;;;;4896742;29;20040;-58
2022/06/22 06:16:41;;;;;;;4.57;1.30;;;;;;;;;;4899066;29;20033;-58
2022/06/22 06:19:08;;;;;;;4.88;1.42;;;;;;;;;;4899715;29;20114;-58
2022/06/22 06:21:36;;;;;;;6.85;1.63;;;;;;;;;;4899306;29;20027;-57
2022/06/22 06:24:11;;;;;;;4.55;1.38;;;;;;;;;;4899385;29;20041;-58
2022/06/22 06:29:38;;;;;;;7.10;1.90;;;;;;;;;;4897096;29;20028;-58
2022/06/22 06:32:22;;;;;;;5.95;1.73;;;;;;;;;;4897755;29;20029;-58
2022/06/22 06:34:57;;;;;;;5.65;1.50;;;;;;;;;;4895375;29;20048;-58
2022/06/22 06:37:32;;;;;;;4.75;1.42;;;;;;;;;;4895623;29;20028;-57
2022/06/22 06:39:58;;;;;;;7.78;1.48;;;;;;;;;;4897836;29;20088;-58
2022/06/22 06:42:27;;;;;;;12.32;1.95;;;;;;;;;;4897509;29;20032;-57
2022/06/22 06:44:54;;;;;;;5.40;1.38;;;;;;;;;;4897262;29;20031;-57
2022/06/22 06:47:25;;;;;;;6.25;1.42;;;;;;;;;;4896122;29;20084;-59
2022/06/22 06:50:07;;;;;;;48.75;21.92;;;;;;;;;;4897526;29;20020;-58
2022/06/22 06:52:42;;;;;;;9.52;3.28;;;;;;;;;;4896262;29;20473;-57
2022/06/22 06:55:14;;;;;;;39.50;13.50;;;;;;;;;;4895609;29;20080;-57
2022/06/22 06:57:55;;;;;;;103.55;39.50;;;;;;;;;;4897224;29;20036;-59
2022/06/22 07:00:22;;;;;;;18.05;5.85;;;;;;;;;;4897865;29;20872;-60
2022/06/22 07:02:48;;;;;;;15.85;5.07;;;;;;;;;;4897044;29;20032;-58
2022/06/22 07:05:16;;;;;;;12.43;3.83;;;;;;;;;;4898045;29;20033;-58
2022/06/22 07:07:46;;;;;;;16.05;4.93;;;;;;;;;;4898491;29;20076;-57
2022/06/22 07:10:15;;;;;;;12.52;3.03;;;;;;;;;;4898492;29;20492;-56
2022/06/22 07:12:41;;;;;;;9.35;2.78;;;;;;;;;;4897628;29;20036;-57
2022/06/22 07:15:11;;;;;;;10.85;3.28;;;;;;;;;;4898669;29;20033;-57
2022/06/22 07:17:37;;;;;;;8.57;2.15;;;;;;;;;;4898240;29;20064;-59
2022/06/22 07:20:06;;;;;;;8.18;1.95;;;;;;;;;;4898514;29;20036;-57
2022/06/22 07:22:37;;;;;;;12.13;2.35;;;;;;;;;;4897079;29;20043;-57
2022/06/22 07:25:12;;;;;;;5.73;2.27;;;;;;;;;;4897409;29;20048;-58
2022/06/22 07:27:47;;;;;;;7.07;2.03;;;;;;;;;;4897817;29;20458;-57
2022/06/22 07:30:29;;;;;;;7.38;1.95;;;;;;;;;;4897889;29;20504;-60
2022/06/22 07:32:59;;;;;;;10.13;2.20;;;;;;;;;;4897653;29;20036;-57
2022/06/22 07:35:34;;;;;;;5.65;2.33;;;;;;;;;;4897884;29;20115;-57
2022/06/22 07:38:02;;;;;;;9.20;1.98;;;;;;;;;;4897448;29;20173;-57
2022/06/22 07:40:29;;;;;;;6.30;1.98;;;;;;;;;;4898012;29;20025;-56
2022/06/22 07:42:56;;;;;;;14.52;1.60;;;;;;;;;;4897674;29;20033;-56
2022/06/22 07:45:23;;;;;;;7.63;2.05;;;;;;;;;;4897441;29;20477;-58
2022/06/22 07:48:09;;;;;;;10.85;1.88;;;;;;;;;;4897562;29;20111;-58
2022/06/22 07:50:37;;;;;;;10.23;1.90;;;;;;;;;;4897688;29;20029;-56
2022/06/22 07:53:17;;;;;;;10.43;1.80;;;;;;;;;;4897842;29;20032;-55
2022/06/22 07:56:06;;;;;;;5.18;1.58;;;;;;;;;;4897295;29;20107;-57
2022/06/22 07:58:36;;;;;;;4.68;1.60;;;;;;;;;;4897673;29;20508;-57
2022/06/22 08:01:04;;;;;;;5.97;2.42;;;;;;;;;;4897460;29;20032;-58
2022/06/22 08:03:30;;;;;;;7.72;2.05;;;;;;;;;;4897378;29;20035;-56
2022/06/22 08:05:59;;;;;;;6.13;2.33;;;;;;;;;;4897098;29;20413;-56
2022/06/22 08:08:32;;;;;;;5.72;1.83;;;;;;;;;;4897147;29;20694;-57
2022/06/22 08:10:58;;;;;;;3.85;1.58;;;;;;;;;;4897523;29;20036;-57
2022/06/22 08:13:38;;;;;;;5.25;1.75;;;;;;;;;;4897234;29;20044;-56
2022/06/22 08:16:07;;;;;;;4.75;1.45;;;;;;;;;;4896939;29;20032;-58
2022/06/22 08:18:33;;;;;;;4.93;1.27;;;;;;;;;;4897298;29;20040;-58
2022/06/22 08:20:59;;;;;;;5.38;1.35;;;;;;;;;;4897024;29;20025;-58
2022/06/22 08:23:28;;;;;;;4.78;1.45;;;;;;;;;;4896862;29;20048;-60
2022/06/22 08:25:57;;;;;;;5.05;1.25;;;;;;;;;;4897284;29;20079;-57
2022/06/22 08:28:23;;;;;;;4.93;1.27;;;;;;;;;;4896445;29;20033;-57
2022/06/22 08:30:50;;;;;;;3.75;1.10;;;;;;;;;;4896921;29;20051;-59
2022/06/22 08:33:28;;;;;;;4.70;1.25;;;;;;;;;;4895881;29;20124;-57
2022/06/22 08:35:59;;;;;;;5.25;1.30;;;;;;;;;;4896453;29;20033;-54
2022/06/22 08:38:35;;;;;;;3.25;1.13;;;;;;;;;;4897252;29;20116;-56
2022/06/22 08:41:10;;;;;;;2.95;1.00;;;;;;;;;;4896613;29;20037;-58
2022/06/22 08:43:45;;;;;;;7.47;1.30;;;;;;;;;;4896786;29;20092;-57
2022/06/22 08:46:14;;;;;;;4.30;1.30;;;;;;;;;;4896512;29;20041;-57
2022/06/22 08:48:53;;;;;;;6.07;1.25;;;;;;;;;;4896832;29;20484;-57
2022/06/22 08:51:22;;;;;;;4.65;1.20;;;;;;;;;;4896453;29;20060;-57
2022/06/22 08:54:07;;;;;;;7.43;1.55;;;;;;;;;;4896471;29;20096;-57
2022/06/22 08:56:54;;;;;;;3.42;1.25;;;;;;;;;;4896729;29;20068;-58
2022/06/22 08:59:22;;;;;;;5.25;1.13;;;;;;;;;;4896491;29;20021;-56
2022/06/22 09:02:07;;;;;;;4.72;1.00;;;;;;;;;;4896400;29;20036;-57
2022/06/22 09:04:46;;;;;;;3.45;1.42;;;;;;;;;;4896706;29;20024;-56
2022/06/22 09:07:35;;;;;;;3.92;1.38;;;;;;;;;;4896295;29;20037;-56
2022/06/22 09:10:03;;;;;;;4.25;1.25;;;;;;;;;;4802209;29;20415;-57
2022/06/22 09:12:38;;;;;;;7.13;1.63;;;;;;;;;;4802202;29;20061;-56
2022/06/22 09:15:13;;;;;;;8.90;1.30;;;;;;;;;;4801993;29;20039;-56
2022/06/22 09:17:54;;;;;;;3.60;1.05;;;;;;;;;;4802423;29;20088;-58
2022/06/22 09:20:34;;;;;;;3.75;1.20;;;;;;;;;;4802077;29;20046;-58
2022/06/22 09:23:04;;;;;;;5.10;1.15;;;;;;;;;;4801888;29;20047;-56
2022/06/22 09:25:38;;;;;;;4.30;1.27;;;;;;;;;;4801914;29;20055;-57
2022/06/22 09:28:12;;;;;;;2.70;1.10;;;;;;;;;;4802101;29;20047;-57
2022/06/22 09:30:38;;;;;;;2.60;1.00;;;;;;;;;;4801983;29;20038;-58
2022/06/22 09:33:08;;;;;;;1.80;0.82;;;;;;;;;;4802093;29;20155;-57
2022/06/22 09:35:42;;;;;;;4.18;0.90;;;;;;;;;;4802079;29;20031;-57
2022/06/22 09:38:08;;;;;;;5.10;0.93;;;;;;;;;;4801644;29;20043;-57
2022/06/22 09:40:37;;;;;;;2.25;1.00;;;;;;;;;;4801921;29;20070;-57
2022/06/22 09:43:22;;;;;;;3.65;1.10;;;;;;;;;;4801766;29;20039;-56
2022/06/22 09:45:54;;;;;;;2.35;0.80;;;;;;;;;;4805311;29;20113;-56
2022/06/22 09:48:43;;;;;;;2.20;1.15;;;;;;;;;;4880811;29;20025;-57
2022/06/22 09:51:21;;;;;;;2.25;1.10;;;;;;;;;;4823400;29;20048;-58
2022/06/22 09:53:59;;;;;;;3.17;0.90;;;;;;;;;;4823330;29;20407;-58
2022/06/22 09:57:03;;;;;;;4.38;1.20;;;;;;;;;;4823247;29;20094;-57
2022/06/22 09:59:52;;;;;;;5.63;1.13;;;;;;;;;;4787357;29;20522;-58
2022/06/22 10:02:38;;;;;;;2.13;1.10;;;;;;;;;;4751395;30;20158;-57
2022/06/22 10:05:13;;;;;;;3.95;1.10;;;;;;;;;;4699296;30;20045;-59
2022/06/22 10:07:42;;;;;;;6.97;1.10;;;;;;;;;;4698990;30;20061;-61
2022/06/22 10:10:27;;;;;;;5.15;1.00;;;;;;;;;;4699173;30;20049;-59
2022/06/22 10:12:53;;;;;;;2.88;1.10;;;;;;;;;;4698825;30;20046;-57
2022/06/22 10:15:22;;;;;;;4.60;1.10;;;;;;;;;;4698767;30;20073;-58
2022/06/22 10:18:03;;;;;;;2.80;1.13;;;;;;;;;;4698667;30;20145;-57
2022/06/22 10:20:36;;;;;;;3.30;0.90;;;;;;;;;;4699017;30;20049;-57
2022/06/22 10:23:11;;;;;;;5.07;1.00;;;;;;;;;;4698637;30;20520;-58
2022/06/22 10:25:43;;;;;;;3.67;1.00;;;;;;;;;;4698429;30;20041;-57
2022/06/22 10:28:27;;;;;;;9.75;1.08;;;;;;;;;;4715967;30;20399;-57
2022/06/22 10:30:53;;;;;;;3.83;0.95;;;;;;;;;;4740625;30;20036;-57
2022/06/22 10:33:19;;;;;;;4.13;1.15;;;;;;;;;;4751351;30;20048;-57
2022/06/22 10:36:02;;;;;;;4.93;1.00;;;;;;;;;;4751238;30;20075;-57
2022/06/22 10:38:48;;;;;;;3.83;1.02;;;;;;;;;;4761934;29;20051;-56
2022/06/22 10:47:38;;;;;;;4.93;0.95;;;;;;;;;;4840887;29;20096;-58
2022/06/22 10:50:04;;;;;;;3.97;1.08;;;;;;;;;;4841022;29;20025;-59
2022/06/22 10:52:30;;;;;;;2.72;1.20;;;;;;;;;;4840795;29;20420;-58
2022/06/22 10:55:15;;;;;;;3.97;1.20;;;;;;;;;;4840578;29;20537;-58
2022/06/22 10:57:56;;;;;;;3.28;1.20;;;;;;;;;;4840110;29;20144;-57
2022/06/22 11:00:40;;;;;;;3.28;1.20;;;;;;;;;;4840458;29;20708;-58
2022/06/22 11:03:08;;;;;;;4.18;1.30;;;;;;;;;;4840773;29;20550;-57
2022/06/22 11:05:40;;;;;;;4.05;1.10;;;;;;;;;;4840562;29;20057;-57
2022/06/22 11:08:15;;;;;;;3.10;1.50;;;;;;;;;;4839680;29;20056;-58
2022/06/22 11:10:44;;;;;;;4.07;1.10;;;;;;;;;;4840633;29;20074;-58
2022/06/22 11:13:22;;;;;;;6.47;2.13;;;;;;;;;;4840458;29;20479;-59
2022/06/22 11:16:15;;;;;;;5.85;1.73;;;;;;;;;;4840171;29;20034;-58
2022/06/22 11:18:41;;;;;;;8.43;2.10;;;;;;;;;;4828768;29;20135;-59
2022/06/22 11:21:20;;;;;;;4.35;1.60;;;;;;;;;;4898289;29;20506;-59
2022/06/22 11:23:46;;;;;;;4.30;1.48;;;;;;;;;;4897970;29;20037;-59
2022/06/22 11:32:15;;;;;;;2.53;1.13;;;;;;;;;;4917141;29;20043;-60
2022/06/22 11:34:57;;;;;;;4.27;1.40;;;;;;;;;;4917099;29;20119;-60
2022/06/22 11:37:49;;;;;;;3.17;1.57;;;;;;;;;;4899988;29;20100;-59
2022/06/22 11:40:17;;;;;;;;;;;;;;;;;;4881554;29;20119;-59
2022/06/22 11:42:49;;;;;;;6.05;1.95;;;;;;;;;;4916880;29;20360;-59
2022/06/22 11:48:05;;;;;;;3.00;1.20;;;;;;;;;;4916746;29;20123;-58
2022/06/22 11:50:49;;;;;;;4.13;1.77;;;;;;;;;;4916532;29;20095;-66
2022/06/22 11:53:21;;;;;;;7.65;1.20;;;;;;;;;;4916351;29;20504;-68
2022/06/22 11:55:53;;;;;;;4.80;1.40;;;;;;;;;;4916562;29;20064;-57
2022/06/22 11:58:26;;;;;;;2.97;1.55;;;;;;;;;;4915608;29;20134;-56
2022/06/22 12:01:03;;;;;;;3.40;1.40;;;;;;;;;;4916011;29;20512;-56
2022/06/22 12:03:59;;;;;;;4.05;1.90;;;;;;;;;;4916306;29;20036;-57
2022/06/22 12:06:31;;;;;;;4.53;1.33;;;;;;;;;;4821169;29;20584;-56
2022/06/22 12:09:15;;;;;;;5.05;1.70;;;;;;;;;;4820921;29;20144;-59
2022/06/22 12:11:50;;;;;;;2.80;1.50;;;;;;;;;;4821104;29;20427;-57
2022/06/22 12:17:18;;;;;;;4.63;1.80;;;;;;;;;;4821019;29;20114;-56
2022/06/22 12:19:50;;;;;;;4.47;1.75;;;;;;;;;;4820421;29;20045;-57
2022/06/22 12:22:20;;;;;;;6.88;1.90;;;;;;;;;;4820546;29;20152;-67
2022/06/22 12:25:03;;;;;;;3.33;1.92;;;;;;;;;;4820102;29;20575;-57
2022/06/22 12:27:30;;;;;;;4.22;1.80;;;;;;;;;;4820790;29;20030;-69
2022/06/22 12:30:15;;;;;;;5.55;1.90;;;;;;;;;;4819805;29;20439;-63
2022/06/22 12:32:46;;;;;;;5.70;2.38;;;;;;;;;;4820713;29;20038;-56
2022/06/22 12:35:19;;;;;;;4.43;1.75;;;;;;;;;;4803298;29;20027;-56
2022/06/22 12:37:50;;;;;;;6.03;2.08;;;;;;;;;;4801112;29;20057;-57
2022/06/22 12:40:18;;;;;;;3.50;1.75;;;;;;;;;;4801403;29;20035;-56
2022/06/22 12:42:53;;;;;;;3.65;1.60;;;;;;;;;;4844782;29;20036;-64
2022/06/22 12:45:28;;;;;;;6.13;2.03;;;;;;;;;;4894080;29;20020;-58
2022/06/22 12:48:06;;;;;;;5.00;1.83;;;;;;;;;;4893769;29;20029;-56
2022/06/22 12:50:53;;;;;;;4.55;2.00;;;;;;;;;;4893465;29;20067;-57
2022/06/22 12:53:27;;;;;;;6.07;1.92;;;;;;;;;;4893742;29;20036;-57
2022/06/22 12:55:59;;;;;;;5.18;1.95;;;;;;;;;;4893089;29;20080;-58
2022/06/22 12:58:40;;;;;;;9.90;2.25;;;;;;;;;;4895551;29;20096;-57
2022/06/22 13:01:06;;;;;;;5.40;2.20;;;;;;;;;;4896690;29;20040;-58
2022/06/22 13:03:41;;;;;;;5.40;1.83;;;;;;;;;;4878630;29;20083;-57
2022/06/22 13:06:08;;;;;;;7.20;2.00;;;;;;;;;;4895252;29;20115;-58
2022/06/22 13:08:34;;;;;;;5.03;1.80;;;;;;;;;;4895402;29;20434;-56
2022/06/22 13:11:03;;;;;;;6.80;1.92;;;;;;;;;;4894962;29;20028;-59
2022/06/22 13:13:32;;;;;;;3.92;1.77;;;;;;;;;;4896252;29;20422;-62
2022/06/22 13:16:00;;;;;;;10.75;2.17;;;;;;;;;;4895873;29;20025;-57
2022/06/22 13:18:30;;;;;;;5.15;2.15;;;;;;;;;;4895226;29;20044;-58
2022/06/22 13:21:22;;;;;;;6.25;2.10;;;;;;;;;;4895974;29;20029;-57
2022/06/22 13:23:58;;;;;;;5.05;1.92;;;;;;;;;;4878094;29;20098;-57
2022/06/22 13:26:43;;;;;;;2.83;1.60;;;;;;;;;;4895860;29;20045;-57
2022/06/22 13:29:09;;;;;;;7.18;2.10;;;;;;;;;;4896361;29;20107;-57
2022/06/22 13:31:39;;;;;;;5.55;1.98;;;;;;;;;;4895590;29;20033;-57
2022/06/22 13:34:20;;;;;;;5.18;1.90;;;;;;;;;;4895773;29;20033;-63
2022/06/22 13:36:55;;;;;;;5.05;2.13;;;;;;;;;;4895715;29;20092;-66
2022/06/22 13:39:34;;;;;;;5.28;2.50;;;;;;;;;;4896043;29;20029;-56
2022/06/22 13:42:00;;;;;;;6.85;2.08;;;;;;;;;;4895702;29;20028;-56
2022/06/22 13:44:44;;;;;;;9.43;2.08;;;;;;;;;;4909771;29;20461;-60
2022/06/22 13:47:19;;;;;;;6.10;2.05;;;;;;;;;;4895915;29;20101;-68
2022/06/22 13:50:52;;;;;;;5.30;2.10;;;;;;;;;;4895547;29;20037;-66
2022/06/22 13:52:53;;;;;;;5.95;2.55;;;;;;;;;;4886778;29;20099;-56
2022/06/22 13:55:39;;;;;;;8.60;2.10;;;;;;;;;;4894804;29;20021;-61
2022/06/22 13:58:15;;;;;;;4.85;2.30;;;;;;;;;;4892323;29;20047;-57
2022/06/22 14:01:07;;;;;;;4.85;2.20;;;;;;;;;;4892820;29;20032;-57
2022/06/22 14:03:52;;;;;;;8.00;2.28;;;;;;;;;;4891732;29;20041;-69
2022/06/22 14:06:24;;;;;;;9.50;2.80;;;;;;;;;;4892649;29;20039;-57
2022/06/22 14:08:53;;;;;;;5.03;2.50;;;;;;;;;;4893870;29;20036;-64
2022/06/22 14:11:37;;;;;;;10.27;2.38;;;;;;;;;;4893330;29;20778;-57
2022/06/22 14:14:12;;;;;;;7.03;2.30;;;;;;;;;;4893120;29;20044;-63
2022/06/22 14:17:02;;;;;;;5.38;2.45;;;;;;;;;;4894245;29;20147;-65
2022/06/22 14:19:34;;;;;;;6.18;2.50;;;;;;;;;;4801110;29;20039;-57
2022/06/22 14:22:01;;;;;;;5.80;2.30;;;;;;;;;;4801414;29;20043;-58
2022/06/22 14:24:42;;;;;;;4.22;2.15;;;;;;;;;;4800506;29;20042;-58
2022/06/22 14:27:17;;;;;;;5.07;2.40;;;;;;;;;;4801444;29;20039;-62
2022/06/22 14:30:02;;;;;;;9.45;2.70;;;;;;;;;;4801262;29;20068;-57
2022/06/22 14:32:28;;;;;;;5.95;2.30;;;;;;;;;;4805015;29;20440;-66
2022/06/22 14:34:54;;;;;;;7.20;2.28;;;;;;;;;;4804419;29;20582;-66
2022/06/22 14:37:23;;;;;;;6.75;2.10;;;;;;;;;;4804163;29;20500;-57
2022/06/22 14:39:52;;;;;;;6.93;1.98;;;;;;;;;;4804486;29;20049;-66
2022/06/22 14:42:23;;;;;;;5.72;2.42;;;;;;;;;;4803961;29;20576;-55
2022/06/22 14:44:57;;;;;;;5.05;2.20;;;;;;;;;;4804657;29;20038;-66
2022/06/22 14:47:42;;;;;;;6.43;2.28;;;;;;;;;;4804575;29;20038;-55
2022/06/22 14:50:26;;;;;;;4.40;2.10;;;;;;;;;;4803839;29;20121;-56
2022/06/22 14:53:13;;;;;;;7.22;2.03;;;;;;;;;;4802936;29;20101;-56
2022/06/22 14:55:39;;;;;;;3.30;2.00;;;;;;;;;;4819582;29;20048;-60
2022/06/22 14:58:05;;;;;;;6.20;2.28;;;;;;;;;;4881636;29;20564;-58
2022/06/22 15:00:50;;;;;;;5.28;2.30;;;;;;;;;;4898536;29;20032;-60
2022/06/22 15:03:22;;;;;;;3.08;1.85;;;;;;;;;;4898795;29;20041;-57
2022/06/22 15:05:52;;;;;;;8.20;2.05;;;;;;;;;;4898372;29;20039;-57
2022/06/22 15:08:27;;;;;;;8.63;2.17;;;;;;;;;;4897259;29;20104;-59
2022/06/22 15:10:57;;;;;;;7.18;2.10;;;;;;;;;;4895582;29;20028;-71
2022/06/22 15:13:29;;;;;;;5.10;2.25;;;;;;;;;;4897326;29;20021;-71
2022/06/22 15:16:02;;;;;;;5.03;2.60;;;;;;;;;;4896042;29;20170;-64
2022/06/22 15:18:32;;;;;;;6.65;2.45;;;;;;;;;;4892622;29;20124;-68
2022/06/22 15:20:58;;;;;;;4.90;2.40;;;;;;;;;;4897913;29;20037;-58
2022/06/22 15:23:37;;;;;;;6.65;2.40;;;;;;;;;;4897724;29;20040;-58
2022/06/22 15:26:06;;;;;;;8.68;2.30;;;;;;;;;;4897300;29;20060;-65
2022/06/22 15:28:36;;;;;;;4.90;2.00;;;;;;;;;;4898191;29;20028;-68
2022/06/22 15:31:14;;;;;;;4.28;1.95;;;;;;;;;;4897729;29;20037;-74
2022/06/22 15:33:43;;;;;;;5.28;2.58;;;;;;;;;;4898015;29;20095;-57
2022/06/22 15:36:11;;;;;;;7.97;2.40;;;;;;;;;;4897232;29;20056;-63
2022/06/22 15:38:37;;;;;;;5.97;2.45;;;;;;;;;;4896558;29;20044;-60
2022/06/22 15:41:22;;;;;;;5.18;2.40;;;;;;;;;;4897085;29;20544;-58
2022/06/22 15:44:00;;;;;;;3.67;2.17;;;;;;;;;;4896671;29;20063;-63
2022/06/22 15:46:26;;;;;;;5.60;2.17;;;;;;;;;;4897206;29;20036;-58
2022/06/22 15:48:57;;;;;;;6.68;2.28;;;;;;;;;;4898037;29;20028;-58
2022/06/22 15:51:23;;;;;;;6.22;2.30;;;;;;;;;;4897666;29;20502;-72
2022/06/22 15:53:49;;;;;;;7.97;2.35;;;;;;;;;;4897936;29;20037;-57
2022/06/22 15:56:18;;;;;;;7.03;2.42;;;;;;;;;;4897375;29;20029;-62
2022/06/22 15:58:54;;;;;;;5.20;2.10;;;;;;;;;;4897409;29;20041;-71
2022/06/22 16:01:28;;;;;;;7.18;2.28;;;;;;;;;;4896943;29;20028;-57
2022/06/22 16:04:00;;;;;;;8.45;2.28;;;;;;;;;;4897437;29;20076;-66
2022/06/22 16:06:28;;;;;;;6.68;2.03;;;;;;;;;;4897351;29;20562;-73
2022/06/22 16:09:04;;;;;;;4.45;2.35;;;;;;;;;;4897665;29;20437;-71
2022/06/22 16:14:24;;;;;;;7.95;2.60;;;;;;;;;;4897106;29;20092;-70
2022/06/22 16:16:56;;;;;;;6.10;2.28;;;;;;;;;;4897134;29;20036;-58
2022/06/22 16:19:41;;;;;;;8.48;2.15;;;;;;;;;;4897382;29;20055;-65
2022/06/22 16:22:09;;;;;;;4.63;2.47;;;;;;;;;;4897146;29;20385;-71
2022/06/22 16:24:38;;;;;;;5.15;2.40;;;;;;;;;;4896941;29;20033;-72
2022/06/22 16:27:14;;;;;;;5.50;1.98;;;;;;;;;;4896488;29;20029;-63
2022/06/22 16:29:45;;;;;;;5.43;2.28;;;;;;;;;;4896746;29;20499;-66
2022/06/22 16:32:11;;;;;;;6.00;2.35;;;;;;;;;;4896819;29;20084;-56
2022/06/22 16:34:37;;;;;;;6.05;2.53;;;;;;;;;;4896758;29;20024;-61
2022/06/22 16:37:24;;;;;;;5.65;2.42;;;;;;;;;;4896745;29;20033;-57
2022/06/22 16:40:08;;;;;;;8.10;2.60;;;;;;;;;;4896475;29;20450;-74
2022/06/22 16:42:34;;;;;;;5.15;1.95;;;;;;;;;;4896398;29;20108;-63
2022/06/22 16:45:03;;;;;;;4.38;2.20;;;;;;;;;;4896637;29;20115;-66
2022/06/22 16:47:43;;;;;;;5.50;2.28;;;;;;;;;;4896350;29;20032;-58
2022/06/22 16:50:14;;;;;;;4.63;2.20;;;;;;;;;;4896325;29;20032;-73
2022/06/22 16:52:42;;;;;;;6.10;2.10;;;;;;;;;;4896092;29;20037;-73
2022/06/22 16:55:14;;;;;;;7.97;4.10;;;;;;;;;;4896097;29;20045;-73
2022/06/22 16:57:42;;;;;;;14.15;6.22;;;;;;;;;;4896535;29;20552;-58
2022/06/22 17:00:09;;;;;;;10.05;5.35;;;;;;;;;;4896582;29;20104;-58
2022/06/22 17:02:41;;;;;;;5.55;3.20;;;;;;;;;;4896393;29;20024;-65
2022/06/22 17:05:07;;;;;;;5.88;2.55;;;;;;;;;;4896028;29;20024;-57
2022/06/22 17:07:52;;;;;;;8.60;2.65;;;;;;;;;;4896230;29;20032;-74
2022/06/22 17:10:23;;;;;;;7.15;2.17;;;;;;;;;;4896449;29;20036;-75
2022/06/22 17:12:51;;;;;;;6.90;2.40;;;;;;;;;;4896190;29;20311;-74
2022/06/22 17:15:46;;;;;;;5.00;2.50;;;;;;;;;;4895581;29;20040;-57
2022/06/22 17:18:17;;;;;;;8.10;2.60;;;;;;;;;;4801726;29;20085;-64
2022/06/22 17:20:47;;;;;;;5.28;2.10;;;;;;;;;;4801936;29;20035;-71
2022/06/22 17:23:31;;;;;;;8.40;2.58;;;;;;;;;;4801475;29;20054;-58
2022/06/22 17:26:23;;;;;;;7.32;2.47;;;;;;;;;;4800841;29;20062;-71
2022/06/22 17:28:54;;;;;;;6.03;2.13;;;;;;;;;;4801494;29;20122;-60
2022/06/22 17:31:23;;;;;;;5.38;2.20;;;;;;;;;;4801601;29;20482;-57
2022/06/22 17:33:58;;;;;;;6.30;2.63;;;;;;;;;;4801694;29;20039;-57
2022/06/22 17:36:26;;;;;;;7.38;2.20;;;;;;;;;;4801074;29;20053;-70
2022/06/22 17:39:04;;;;;;;5.68;2.30;;;;;;;;;;4801813;29;20054;-59
2022/06/22 17:41:33;;;;;;;7.00;2.58;;;;;;;;;;4801887;29;20047;-57
2022/06/22 17:44:09;;;;;;;6.60;2.60;;;;;;;;;;4801929;29;20035;-56
2022/06/22 17:46:43;;;;;;;6.65;3.03;;;;;;;;;;4801793;29;20151;-58
2022/06/22 17:49:12;;;;;;;10.27;2.70;;;;;;;;;;4801470;29;20082;-56
2022/06/22 17:51:46;;;;;;;8.00;2.53;;;;;;;;;;4801528;29;20038;-66
2022/06/22 17:54:15;;;;;;;6.05;2.72;;;;;;;;;;4833549;29;20084;-56
2022/06/22 17:56:43;;;;;;;5.90;2.78;;;;;;;;;;4895850;29;20039;-56
2022/06/22 17:59:13;;;;;;;13.82;3.25;;;;;;;;;;4895990;29;20065;-56
2022/06/22 18:01:39;;;;;;;8.43;2.90;;;;;;;;;;4895473;29;20040;-55
2022/06/22 18:04:11;;;;;;;8.27;3.28;;;;;;;;;;4896065;29;20032;-67
2022/06/22 18:06:39;;;;;;;7.43;3.25;;;;;;;;;;4898763;29;20035;-56
2022/06/22 18:09:05;;;;;;;9.32;3.22;;;;;;;;;;4899666;29;20039;-75
2022/06/22 18:11:35;;;;;;;9.23;3.50;;;;;;;;;;4900144;29;20036;-56
2022/06/22 18:14:08;;;;;;;10.52;3.90;;;;;;;;;;4899883;29;20032;-63
2022/06/22 18:16:37;;;;;;;7.25;3.45;;;;;;;;;;4899793;29;20024;-56
2022/06/22 18:19:03;;;;;;;8.18;3.67;;;;;;;;;;4899191;29;20033;-70
2022/06/22 18:21:37;;;;;;;15.65;4.13;;;;;;;;;;4899461;29;20385;-62
2022/06/22 18:24:19;;;;;;;9.55;3.42;;;;;;;;;;4899258;29;20124;-56
2022/06/22 18:26:49;;;;;;;9.83;3.50;;;;;;;;;;4899157;29;20052;-75
2022/06/22 18:29:19;;;;;;;10.45;3.40;;;;;;;;;;4899575;29;20287;-63
2022/06/22 18:31:52;;;;;;;8.68;3.65;;;;;;;;;;4899241;29;20044;-68
2022/06/22 18:34:33;;;;;;;9.13;4.00;;;;;;;;;;4899430;29;20028;-75
2022/06/22 18:37:19;;;;;;;8.57;3.17;;;;;;;;;;4913116;29;20056;-57
2022/06/22 18:42:48;;;;;;;8.25;3.58;;;;;;;;;;4918039;29;20547;-57
2022/06/22 18:45:24;;;;;;;7.82;3.25;;;;;;;;;;4918212;29;20031;-59
2022/06/22 18:47:56;;;;;;;10.95;3.30;;;;;;;;;;4918053;29;20392;-58
2022/06/22 18:50:22;;;;;;;;;;;;;;;;;;4918512;29;20052;-57
2022/06/22 18:53:01;;;;;;;8.60;3.60;;;;;;;;;;4918010;29;20418;-75
2022/06/22 18:55:36;;;;;;;8.75;3.65;;;;;;;;;;4917716;29;20024;-57
2022/06/22 18:58:23;;;;;;;12.70;3.67;;;;;;;;;;4917836;29;20040;-61
2022/06/22 19:01:00;;;;;;;9.48;4.65;;;;;;;;;;4917411;29;20063;-58
2022/06/22 19:03:30;;;;;;;12.68;4.40;;;;;;;;;;4917992;29;20040;-57
2022/06/22 19:06:01;;;;;;;20.02;9.75;;;;;;;;;;4917583;29;20028;-68
2022/06/22 19:08:33;;;;;;;16.65;6.85;;;;;;;;;;4917800;29;20503;-56
2022/06/22 19:11:01;;;;;;;11.07;5.82;;;;;;;;;;4917801;29;20032;-56
2022/06/22 19:13:42;;;;;;;12.18;5.10;;;;;;;;;;4917275;29;20547;-62
2022/06/22 19:16:11;;;;;;;11.88;5.50;;;;;;;;;;4915127;29;20084;-64
2022/06/22 19:19:03;;;;;;;13.43;5.45;;;;;;;;;;4879293;29;20447;-56
2022/06/22 19:21:56;;;;;;;13.88;5.13;;;;;;;;;;4817481;29;20050;-56
2022/06/22 19:24:28;;;;;;;14.52;4.95;;;;;;;;;;4822190;29;20083;-57
2022/06/22 19:27:09;;;;;;;8.07;4.63;;;;;;;;;;4815384;29;20043;-69
2022/06/22 19:29:37;;;;;;;10.65;4.57;;;;;;;;;;4810698;29;20039;-57
2022/06/22 19:32:28;;;;;;;10.95;5.10;;;;;;;;;;4814211;29;20042;-58
2022/06/22 19:35:20;;;;;;;16.10;5.65;;;;;;;;;;4774443;30;20046;-65
2022/06/22 19:37:51;;;;;;;12.30;6.05;;;;;;;;;;4723665;30;20083;-56
2022/06/22 19:40:36;;;;;;;9.85;4.93;;;;;;;;;;4731130;30;20040;-58
2022/06/22 19:43:19;;;;;;;16.20;5.05;;;;;;;;;;4732076;30;20052;-71
2022/06/22 19:45:56;;;;;;;20.95;5.95;;;;;;;;;;4732696;30;20064;-60
2022/06/22 19:48:22;;;;;;;11.95;5.03;;;;;;;;;;4732054;30;20087;-56
2022/06/22 19:50:53;;;;;;;11.88;5.50;;;;;;;;;;4732491;30;20068;-66
2022/06/22 19:53:19;;;;;;;14.63;5.68;;;;;;;;;;4732486;30;20052;-56
2022/06/22 19:55:50;;;;;;;14.10;5.72;;;;;;;;;;4731304;30;20048;-57
2022/06/22 19:58:16;;;;;;;15.50;6.15;;;;;;;;;;4748776;30;20055;-58
2022/06/22 20:00:47;;;;;;;16.35;5.30;;;;;;;;;;4767219;30;20416;-72
2022/06/22 20:03:24;;;;;;;11.57;5.38;;;;;;;;;;4767359;30;20141;-58
2022/06/22 20:05:57;;;;;;;14.82;5.50;;;;;;;;;;4767336;30;20047;-58
2022/06/22 20:08:34;;;;;;;9.63;4.35;;;;;;;;;;4767434;30;20046;-60
2022/06/22 20:11:02;;;;;;;12.25;5.28;;;;;;;;;;4772396;29;20394;-63
2022/06/22 20:13:28;;;;;;;14.98;5.38;;;;;;;;;;4806892;29;20031;-58
2022/06/22 20:15:54;;;;;;;13.98;5.55;;;;;;;;;;4878554;29;20063;-56
2022/06/22 20:18:20;;;;;;;13.43;5.40;;;;;;;;;;4878613;29;20048;-57
2022/06/22 20:20:57;;;;;;;11.75;5.40;;;;;;;;;;4878974;29;20033;-57
2022/06/22 20:23:31;;;;;;;9.18;5.45;;;;;;;;;;4883571;29;20499;-58
2022/06/22 20:25:57;;;;;;;12.15;5.68;;;;;;;;;;4896978;29;20049;-56
2022/06/22 20:28:33;;;;;;;13.80;6.35;;;;;;;;;;4896654;29;20021;-63
2022/06/22 20:31:07;;;;;;;12.20;7.55;;;;;;;;;;4895759;29;20029;-61
2022/06/22 20:33:53;;;;;;;16.42;8.23;;;;;;;;;;4896764;29;20031;-57
2022/06/22 20:36:19;;;;;;;20.27;6.60;;;;;;;;;;4896758;29;20029;-74
2022/06/22 20:38:45;;;;;;;9.55;6.00;;;;;;;;;;4896520;29;20032;-63
2022/06/22 20:44:25;;;;;;;15.40;6.35;;;;;;;;;;4896989;29;20087;-58
2022/06/22 20:47:09;;;;;;;12.27;5.95;;;;;;;;;;4896611;29;20037;-59
2022/06/22 20:49:38;;;;;;;15.13;6.60;;;;;;;;;;4895218;29;20100;-76
2022/06/22 20:52:09;;;;;;;13.65;5.57;;;;;;;;;;4897157;29;20047;-59
2022/06/22 20:54:35;;;;;;;10.43;5.30;;;;;;;;;;4897021;29;20028;-58
2022/06/22 20:57:23;;;;;;;13.77;5.57;;;;;;;;;;4895481;29;20044;-66
2022/06/22 20:59:49;;;;;;;12.50;5.45;;;;;;;;;;4893329;29;20031;-56
2022/06/22 21:02:30;;;;;;;10.82;4.97;;;;;;;;;;4895471;29;20036;-73
2022/06/22 21:04:57;;;;;;;11.80;4.73;;;;;;;;;;4894263;29;20111;-65
2022/06/22 21:07:24;;;;;;;13.60;5.15;;;;;;;;;;4897792;29;20032;-56
2022/06/22 21:09:53;;;;;;;13.20;5.45;;;;;;;;;;4895630;29;20428;-61
2022/06/22 21:12:38;;;;;;;13.20;5.20;;;;;;;;;;4895279;29;20039;-63